Thunder radar more information blitzortung!


Radar de pluja more information rain snow radar


Visita la nostra xarxa de llocs de meteo:

Template documentation
and downloads

And another site



Wind From: 11-12-2017 11:00 Until: 14:59 warning for: Wind Level: Yellow info button

Pagina Historial Weather Underground text

Diari Resum May 28, 2017 Unitats:  Tant    Imperial   Mètric
« Previous Dia
SegĂźent Dia »
Diari Setmana Mensual Anual Personalitzada
  Maxima: Minima: Media:
Temperatura: 82 °F /  27.8 °C 58.8 °F /  14.9 °C 72.7 °F /  22.6 °C
Punt de rosada: 58.3 °F /  14.6 °C 46 °F /  7.8 °C 51.6 °F /  10.9 °C
Humitat: 81 % 32 % 50 %
Wind Speed: 12.7 mph /  20.4 km/h - 4.7 mph /  7.6 km/h
RĂ fegues de vent: 12.7 mph /  20.4 km/h - -
Vent:- - ESE
Pression baro: 30.1 in /  1019.9 hPa 30 in /  1015.8 hPa -
Precipitacions: 0 in /  0.0 mm    
Historical Graphs
 
 
Dades de taula per May 28, 2017
Temps Temperatura Punt de rosada Pression baro Vent Wind Speed RĂ fegues de vent Humitat Rainfall Rate (Hourly)
00:00 59.7 °F /  15.4 °C 53.4 °F /  11.9 °C 30.1 in /  1018.8 hPa SW 2 mph /  3.2 km/h 2 mph /  3.2 km/h 80 % 0 in /  0.0 mm
00:04 65.8 °F /  18.8 °C 56.7 °F /  13.7 °C 30.1 in /  1018.8 hPa NNE 1.2 mph /  1.9 km/h   72 % 0 in /  0.0 mm
00:09 65.7 °F /  18.7 °C 56.5 °F /  13.6 °C 30.1 in /  1018.8 hPa Calm     72 % 0 in /  0.0 mm
00:10 59.5 °F /  15.3 °C 53.8 °F /  12.1 °C 30.1 in /  1017.8 hPa SW 1 mph /  1.6 km/h 2 mph /  3.2 km/h 81 % 0 in /  0.0 mm
00:14 65.7 °F /  18.7 °C 56.5 °F /  13.6 °C 30.1 in /  1018.8 hPa ENE 1.2 mph /  1.9 km/h 1.2 mph /  1.9 km/h 72 % 0 in /  0.0 mm
00:20 59.4 °F /  15.2 °C 53.4 °F /  11.9 °C 30.1 in /  1017.8 hPa SW 1 mph /  1.6 km/h 2 mph /  3.2 km/h 81 % 0 in /  0.0 mm
00:30 59.2 °F /  15.1 °C 53.1 °F /  11.7 °C 30.1 in /  1017.8 hPa Calm   2 mph /  3.2 km/h 80 % 0 in /  0.0 mm
00:40 59.2 °F /  15.1 °C 53.4 °F /  11.9 °C 30.1 in /  1017.8 hPa SW 1 mph /  1.6 km/h 1 mph /  1.6 km/h 81 % 0 in /  0.0 mm
00:50 59.4 °F /  15.2 °C 53.2 °F /  11.8 °C 30.1 in /  1017.8 hPa WSW 2 mph /  3.2 km/h 2 mph /  3.2 km/h 80 % 0 in /  0.0 mm
01:00 58.8 °F /  14.9 °C 53.1 °F /  11.7 °C 30.1 in /  1018.8 hPa Calm   2 mph /  3.2 km/h 81 % 0 in /  0.0 mm
01:10 58.8 °F /  14.9 °C 53.1 °F /  11.7 °C 30.1 in /  1018.8 hPa WSW 1 mph /  1.6 km/h 2 mph /  3.2 km/h 81 % 0 in /  0.0 mm
01:20 58.8 °F /  14.9 °C 52.7 °F /  11.5 °C 30.1 in /  1018.8 hPa WSW 2 mph /  3.2 km/h 2 mph /  3.2 km/h 80 % 0 in /  0.0 mm
01:30 59 °F /  15.0 °C 52.9 °F /  11.6 °C 30.1 in /  1018.8 hPa WSW 1 mph /  1.6 km/h 2 mph /  3.2 km/h 80 % 0 in /  0.0 mm
01:40 59 °F /  15.0 °C 52.9 °F /  11.6 °C 30.1 in /  1018.8 hPa SW 1 mph /  1.6 km/h 2 mph /  3.2 km/h 80 % 0 in /  0.0 mm
01:50 59 °F /  15.0 °C 53.2 °F /  11.8 °C 30.1 in /  1018.8 hPa SW 1 mph /  1.6 km/h 2 mph /  3.2 km/h 81 % 0 in /  0.0 mm
02:00 59.2 °F /  15.1 °C 53.4 °F /  11.9 °C 30.1 in /  1018.8 hPa Calm   2 mph /  3.2 km/h 81 % 0 in /  0.0 mm
02:10 59.5 °F /  15.3 °C 53.8 °F /  12.1 °C 30.1 in /  1018.8 hPa SW 1 mph /  1.6 km/h 2 mph /  3.2 km/h 81 % 0 in /  0.0 mm
02:20 59.9 °F /  15.5 °C 53.8 °F /  12.1 °C 30.1 in /  1018.8 hPa SW 1 mph /  1.6 km/h 2 mph /  3.2 km/h 80 % 0 in /  0.0 mm
02:30 60.6 °F /  15.9 °C 54.3 °F /  12.4 °C 30.1 in /  1018.8 hPa Calm   1 mph /  1.6 km/h 80 % 0 in /  0.0 mm
02:40 60.8 °F /  16.0 °C 54.1 °F /  12.3 °C 30.1 in /  1018.8 hPa WSW 2 mph /  3.2 km/h 2 mph /  3.2 km/h 79 % 0 in /  0.0 mm
02:50 61.2 °F /  16.2 °C 54.7 °F /  12.6 °C 30.1 in /  1018.8 hPa SW 2 mph /  3.2 km/h 2 mph /  3.2 km/h 79 % 0 in /  0.0 mm
03:00 61.5 °F /  16.4 °C 54.9 °F /  12.7 °C 30.1 in /  1018.8 hPa SW 1 mph /  1.6 km/h 2 mph /  3.2 km/h 79 % 0 in /  0.0 mm
03:10 63.5 °F /  17.5 °C 56.1 °F /  13.4 °C 30.1 in /  1019.9 hPa SSW 1 mph /  1.6 km/h 1 mph /  1.6 km/h 77 % 0 in /  0.0 mm
03:20 64.4 °F /  18.0 °C 56.3 °F /  13.5 °C 30.1 in /  1019.9 hPa South 1 mph /  1.6 km/h 2 mph /  3.2 km/h 75 % 0 in /  0.0 mm
03:30 64.6 °F /  18.1 °C 56.1 °F /  13.4 °C 30.1 in /  1018.8 hPa SW 1 mph /  1.6 km/h 2 mph /  3.2 km/h 74 % 0 in /  0.0 mm
03:40 64.6 °F /  18.1 °C 56.1 °F /  13.4 °C 30.1 in /  1019.9 hPa SW 2 mph /  3.2 km/h 2 mph /  3.2 km/h 74 % 0 in /  0.0 mm
03:50 65.8 °F /  18.8 °C 56.8 °F /  13.8 °C 30.1 in /  1019.9 hPa Calm   1 mph /  1.6 km/h 73 % 0 in /  0.0 mm
04:00 67.5 °F /  19.7 °C 57.4 °F /  14.1 °C 30.1 in /  1019.9 hPa SW 1 mph /  1.6 km/h 2 mph /  3.2 km/h 70 % 0 in /  0.0 mm
04:10 67.6 °F /  19.8 °C 57 °F /  13.9 °C 30.1 in /  1019.9 hPa SW 1 mph /  1.6 km/h 3 mph /  4.8 km/h 69 % 0 in /  0.0 mm
04:20 69.1 °F /  20.6 °C 56.8 °F /  13.8 °C 30.1 in /  1019.9 hPa SSW 2 mph /  3.2 km/h 2 mph /  3.2 km/h 65 % 0 in /  0.0 mm
04:30 70.3 °F /  21.3 °C 57.9 °F /  14.4 °C 30.1 in /  1018.8 hPa SSE 1 mph /  1.6 km/h 2 mph /  3.2 km/h 65 % 0 in /  0.0 mm
04:40 71.6 °F /  22.0 °C 57.4 °F /  14.1 °C 30.1 in /  1019.9 hPa ESE 1 mph /  1.6 km/h 2 mph /  3.2 km/h 61 % 0 in /  0.0 mm
04:50 73 °F /  22.8 °C 58.3 °F /  14.6 °C 30.1 in /  1019.9 hPa Calm   2 mph /  3.2 km/h 60 % 0 in /  0.0 mm
05:00 73 °F /  22.8 °C 57.9 °F /  14.4 °C 30.1 in /  1019.9 hPa NNE 2 mph /  3.2 km/h 3 mph /  4.8 km/h 59 % 0 in /  0.0 mm
05:10 73.2 °F /  22.9 °C 57 °F /  13.9 °C 30.1 in /  1019.9 hPa NNE 1 mph /  1.6 km/h 3 mph /  4.8 km/h 57 % 0 in /  0.0 mm
05:20 74.1 °F /  23.4 °C 56.8 °F /  13.8 °C 30.1 in /  1019.9 hPa NE 3 mph /  4.8 km/h 3 mph /  4.8 km/h 55 % 0 in /  0.0 mm
05:30 75.2 °F /  24.0 °C 56.8 °F /  13.8 °C 30.1 in /  1019.9 hPa NE 3 mph /  4.8 km/h 6 mph /  9.7 km/h 53 % 0 in /  0.0 mm
05:40 75.9 °F /  24.4 °C 57 °F /  13.9 °C 30.1 in /  1019.9 hPa NNE 3 mph /  4.8 km/h 4 mph /  6.4 km/h 52 % 0 in /  0.0 mm
05:50 76.3 °F /  24.6 °C 55.8 °F /  13.2 °C 30.1 in /  1019.9 hPa NE 3 mph /  4.8 km/h 4 mph /  6.4 km/h 49 % 0 in /  0.0 mm
06:00 77.4 °F /  25.2 °C 56.1 °F /  13.4 °C 30.1 in /  1018.8 hPa ENE 2 mph /  3.2 km/h 3 mph /  4.8 km/h 48 % 0 in /  0.0 mm
11:07 77 °F /  25.0 °C 55.8 °F /  13.2 °C 30.1 in /  1019.9 hPa ENE 3.5 mph /  5.6 km/h 3.5 mph /  5.6 km/h 48 % 0 in /  0.0 mm
11:12 77.4 °F /  25.2 °C 55 °F /  12.8 °C 30.1 in /  1019.9 hPa ESE 4.6 mph /  7.4 km/h 4.6 mph /  7.4 km/h 46 % 0 in /  0.0 mm
11:17 77.4 °F /  25.2 °C 55 °F /  12.8 °C 30.1 in /  1019.9 hPa ESE 4.6 mph /  7.4 km/h 4.6 mph /  7.4 km/h 46 % 0 in /  0.0 mm
11:22 78.1 °F /  25.6 °C 55.6 °F /  13.1 °C 30.1 in /  1019.9 hPa SE 2.6 mph /  4.2 km/h 2.6 mph /  4.2 km/h 46 % 0 in /  0.0 mm
11:27 79.3 °F /  26.3 °C 56.8 °F /  13.8 °C 30.1 in /  1019.9 hPa NNE 4.6 mph /  7.4 km/h 4.6 mph /  7.4 km/h 46 % 0 in /  0.0 mm
11:32 78.4 °F /  25.8 °C 55.9 °F /  13.3 °C 30.1 in /  1019.9 hPa ESE 4.6 mph /  7.4 km/h 4.6 mph /  7.4 km/h 46 % 0 in /  0.0 mm
11:37 78.3 °F /  25.7 °C 55.2 °F /  12.9 °C 30.1 in /  1019.9 hPa East 4.6 mph /  7.4 km/h 4.6 mph /  7.4 km/h 45 % 0 in /  0.0 mm
11:42 79.5 °F /  26.4 °C 56.3 °F /  13.5 °C 30.1 in /  1019.9 hPa NNW 3.5 mph /  5.6 km/h 3.5 mph /  5.6 km/h 45 % 0 in /  0.0 mm
11:47 79 °F /  26.1 °C 55.2 °F /  12.9 °C 30.1 in /  1019.9 hPa ESE 6 mph /  9.7 km/h 6 mph /  9.7 km/h 44 % 0 in /  0.0 mm
11:52 79.5 °F /  26.4 °C 56.3 °F /  13.5 °C 30.1 in /  1019.9 hPa WSW 1.6 mph /  2.6 km/h   45 % 0 in /  0.0 mm
11:57 80.2 °F /  26.8 °C 57 °F /  13.9 °C 30.1 in /  1019.9 hPa NW 3.5 mph /  5.6 km/h 3.5 mph /  5.6 km/h 45 % 0 in /  0.0 mm
12:02 80.6 °F /  27.0 °C 55.4 °F /  13.0 °C 30.1 in /  1019.9 hPa ESE 4.6 mph /  7.4 km/h 4.6 mph /  7.4 km/h 42 % 0 in /  0.0 mm
12:07 80.1 °F /  26.7 °C 55.6 °F /  13.1 °C 30.1 in /  1018.8 hPa ESE 4.6 mph /  7.4 km/h 4.6 mph /  7.4 km/h 43 % 0 in /  0.0 mm
12:12 80.4 °F /  26.9 °C 55.2 °F /  12.9 °C 30.1 in /  1018.8 hPa ESE 5.8 mph /  9.3 km/h 5.8 mph /  9.3 km/h 42 % 0 in /  0.0 mm
12:17 80.1 °F /  26.7 °C 54.1 °F /  12.3 °C 30.1 in /  1018.8 hPa ESE 4.6 mph /  7.4 km/h 4.6 mph /  7.4 km/h 41 % 0 in /  0.0 mm
12:22 80.6 °F /  27.0 °C 54 °F /  12.2 °C 30.1 in /  1018.8 hPa ENE 3.5 mph /  5.6 km/h 3.5 mph /  5.6 km/h 40 % 0 in /  0.0 mm
12:27 80.2 °F /  26.8 °C 54.3 °F /  12.4 °C 30.1 in /  1018.8 hPa ENE 4.6 mph /  7.4 km/h 4.6 mph /  7.4 km/h 41 % 0 in /  0.0 mm
12:32 80.6 °F /  27.0 °C 53.4 °F /  11.9 °C 30.1 in /  1018.8 hPa SE 4.6 mph /  7.4 km/h 4.6 mph /  7.4 km/h 39 % 0 in /  0.0 mm
12:37 80.1 °F /  26.7 °C 52.9 °F /  11.6 °C 30.1 in /  1018.8 hPa SE 6.9 mph /  11.1 km/h 6.9 mph /  11.1 km/h 39 % 0 in /  0.0 mm
12:47 81.5 °F /  27.5 °C 53.4 °F /  11.9 °C 30.1 in /  1018.8 hPa ESE 9.2 mph /  14.8 km/h 9.2 mph /  14.8 km/h 38 % 0 in /  0.0 mm
12:52 81 °F /  27.2 °C 53.8 °F /  12.1 °C 30.1 in /  1017.8 hPa ENE 5.8 mph /  9.3 km/h 5.8 mph /  9.3 km/h 39 % 0 in /  0.0 mm
12:57 81.3 °F /  27.4 °C 53.2 °F /  11.8 °C 30.1 in /  1017.8 hPa NE 5.8 mph /  9.3 km/h 5.8 mph /  9.3 km/h 38 % 0 in /  0.0 mm
13:02 81.5 °F /  27.5 °C 54.1 °F /  12.3 °C 30.1 in /  1017.8 hPa ENE 5.8 mph /  9.3 km/h 5.8 mph /  9.3 km/h 39 % 0 in /  0.0 mm
13:07 81.1 °F /  27.3 °C 53.8 °F /  12.1 °C 30.1 in /  1017.8 hPa East 4.6 mph /  7.4 km/h 4.6 mph /  7.4 km/h 39 % 0 in /  0.0 mm
13:12 81 °F /  27.2 °C 52.2 °F /  11.2 °C 30.1 in /  1017.8 hPa ESE 10.4 mph /  16.7 km/h 10.4 mph /  16.7 km/h 37 % 0 in /  0.0 mm
13:17 81.3 °F /  27.4 °C 52.5 °F /  11.4 °C 30.1 in /  1017.8 hPa ENE 6.9 mph /  11.1 km/h 6.9 mph /  11.1 km/h 37 % 0 in /  0.0 mm
13:27 81.3 °F /  27.4 °C 52.5 °F /  11.4 °C 30.1 in /  1017.8 hPa ENE 8.1 mph /  13.0 km/h 8.1 mph /  13.0 km/h 37 % 0 in /  0.0 mm
13:32 81.7 °F /  27.6 °C 53.6 °F /  12.0 °C 30.1 in /  1017.8 hPa East 9.2 mph /  14.8 km/h 9.2 mph /  14.8 km/h 38 % 0 in /  0.0 mm
13:37 81.5 °F /  27.5 °C 52.7 °F /  11.5 °C 30.1 in /  1017.8 hPa ESE 8.1 mph /  13.0 km/h 8.1 mph /  13.0 km/h 37 % 0 in /  0.0 mm
13:42 81.1 °F /  27.3 °C 52.3 °F /  11.3 °C 30.1 in /  1017.8 hPa ESE 6.9 mph /  11.1 km/h 6.9 mph /  11.1 km/h 37 % 0 in /  0.0 mm
13:47 81.1 °F /  27.3 °C 53.1 °F /  11.7 °C 30.1 in /  1017.8 hPa SE 9.2 mph /  14.8 km/h 9.2 mph /  14.8 km/h 38 % 0 in /  0.0 mm
13:52 81.1 °F /  27.3 °C 52.3 °F /  11.3 °C 30.1 in /  1017.8 hPa SE 9.2 mph /  14.8 km/h 9.2 mph /  14.8 km/h 37 % 0 in /  0.0 mm
13:57 81.3 °F /  27.4 °C 52.5 °F /  11.4 °C 30.1 in /  1017.8 hPa ESE 8.1 mph /  13.0 km/h 8.1 mph /  13.0 km/h 37 % 0 in /  0.0 mm
14:02 81.3 °F /  27.4 °C 53.2 °F /  11.8 °C 30.1 in /  1017.8 hPa ESE 8.1 mph /  13.0 km/h 8.1 mph /  13.0 km/h 38 % 0 in /  0.0 mm
14:07 81.3 °F /  27.4 °C 53.2 °F /  11.8 °C 30.1 in /  1017.8 hPa East 5.9 mph /  9.5 km/h 5.9 mph /  9.5 km/h 38 % 0 in /  0.0 mm
14:12 80.8 °F /  27.1 °C 52.9 °F /  11.6 °C 30.1 in /  1017.8 hPa East 10 mph /  16.1 km/h 10 mph /  16.1 km/h 38 % 0 in /  0.0 mm
14:17 81.3 °F /  27.4 °C 53.2 °F /  11.8 °C 30.1 in /  1017.8 hPa ENE 6.9 mph /  11.1 km/h 6.9 mph /  11.1 km/h 38 % 0 in /  0.0 mm
14:22 81.3 °F /  27.4 °C 52.5 °F /  11.4 °C 30.1 in /  1017.8 hPa East 5.8 mph /  9.3 km/h 5.8 mph /  9.3 km/h 37 % 0 in /  0.0 mm
14:27 81 °F /  27.2 °C 52.2 °F /  11.2 °C 30.1 in /  1017.8 hPa NNE 10.4 mph /  16.7 km/h 10.4 mph /  16.7 km/h 37 % 0 in /  0.0 mm
14:32 81.3 °F /  27.4 °C 52.5 °F /  11.4 °C 30.1 in /  1017.8 hPa East 8.1 mph /  13.0 km/h 8.1 mph /  13.0 km/h 37 % 0 in /  0.0 mm
14:37 81.5 °F /  27.5 °C 52.7 °F /  11.5 °C 30.1 in /  1017.8 hPa ESE 6.9 mph /  11.1 km/h 6.9 mph /  11.1 km/h 37 % 0 in /  0.0 mm
14:42 81.9 °F /  27.7 °C 53.1 °F /  11.7 °C 30.1 in /  1017.8 hPa East 5.8 mph /  9.3 km/h 5.8 mph /  9.3 km/h 37 % 0 in /  0.0 mm
14:47 81.9 °F /  27.7 °C 53.1 °F /  11.7 °C 30.1 in /  1017.8 hPa ESE 6.9 mph /  11.1 km/h 6.9 mph /  11.1 km/h 37 % 0 in /  0.0 mm
14:52 81.5 °F /  27.5 °C 52.7 °F /  11.5 °C 30.1 in /  1017.8 hPa ESE 9.2 mph /  14.8 km/h 9.2 mph /  14.8 km/h 37 % 0 in /  0.0 mm
14:57 82 °F /  27.8 °C 54 °F /  12.2 °C 30.1 in /  1017.8 hPa East 5.8 mph /  9.3 km/h 5.8 mph /  9.3 km/h 38 % 0 in /  0.0 mm
15:02 81.5 °F /  27.5 °C 53.4 °F /  11.9 °C 30.1 in /  1017.8 hPa ESE 11.2 mph /  18.0 km/h 11.2 mph /  18.0 km/h 38 % 0 in /  0.0 mm
15:07 80.8 °F /  27.1 °C 52.9 °F /  11.6 °C 30.1 in /  1017.8 hPa ESE 8.1 mph /  13.0 km/h 8.1 mph /  13.0 km/h 38 % 0 in /  0.0 mm
15:12 81.1 °F /  27.3 °C 53.1 °F /  11.7 °C 30.1 in /  1017.8 hPa East 8.1 mph /  13.0 km/h 8.1 mph /  13.0 km/h 38 % 0 in /  0.0 mm
15:17 80.8 °F /  27.1 °C 52.9 °F /  11.6 °C 30.1 in /  1017.8 hPa East 8.1 mph /  13.0 km/h 8.1 mph /  13.0 km/h 38 % 0 in /  0.0 mm
15:22 80.6 °F /  27.0 °C 52.5 °F /  11.4 °C 30.1 in /  1017.8 hPa ESE 9.2 mph /  14.8 km/h 9.2 mph /  14.8 km/h 38 % 0 in /  0.0 mm
15:23 80.6 °F /  27.0 °C 52.5 °F /  11.4 °C 30.1 in /  1017.8 hPa ESE 9.2 mph /  14.8 km/h 9.2 mph /  14.8 km/h 38 % 0 in /  0.0 mm
15:28 81 °F /  27.2 °C 53.1 °F /  11.7 °C 30.1 in /  1017.8 hPa ESE 12.1 mph /  19.5 km/h 12.1 mph /  19.5 km/h 38 % 0 in /  0.0 mm
15:33 80.6 °F /  27.0 °C 52 °F /  11.1 °C 30.1 in /  1017.8 hPa SSE 8.1 mph /  13.0 km/h 8.1 mph /  13.0 km/h 37 % 0 in /  0.0 mm
15:38 80.8 °F /  27.1 °C 52.2 °F /  11.2 °C 30.1 in /  1017.8 hPa SE 10.4 mph /  16.7 km/h 10.4 mph /  16.7 km/h 37 % 0 in /  0.0 mm
15:43 81 °F /  27.2 °C 53.1 °F /  11.7 °C 30.1 in /  1017.8 hPa East 8.1 mph /  13.0 km/h 8.1 mph /  13.0 km/h 38 % 0 in /  0.0 mm
15:48 80.4 °F /  26.9 °C 52.5 °F /  11.4 °C 30.1 in /  1017.8 hPa ESE 11.5 mph /  18.5 km/h 11.5 mph /  18.5 km/h 38 % 0 in /  0.0 mm
15:53 80.1 °F /  26.7 °C 52.2 °F /  11.2 °C 30.1 in /  1017.8 hPa East 9.2 mph /  14.8 km/h 9.2 mph /  14.8 km/h 38 % 0 in /  0.0 mm
15:58 80.2 °F /  26.8 °C 52.3 °F /  11.3 °C 30.1 in /  1017.8 hPa ESE 8.1 mph /  13.0 km/h 8.1 mph /  13.0 km/h 38 % 0 in /  0.0 mm
16:03 79.9 °F /  26.6 °C 51.3 °F /  10.7 °C 30.1 in /  1017.8 hPa ESE 10.4 mph /  16.7 km/h 10.4 mph /  16.7 km/h 37 % 0 in /  0.0 mm
16:08 79.7 °F /  26.5 °C 51.1 °F /  10.6 °C 30.1 in /  1017.8 hPa ENE 12.7 mph /  20.4 km/h 12.7 mph /  20.4 km/h 37 % 0 in /  0.0 mm
16:13 79.9 °F /  26.6 °C 51.3 °F /  10.7 °C 30.1 in /  1017.8 hPa East 11.5 mph /  18.5 km/h 11.5 mph /  18.5 km/h 37 % 0 in /  0.0 mm
16:18 80.4 °F /  26.9 °C 51.8 °F /  11.0 °C 30.1 in /  1017.8 hPa ENE 8.1 mph /  13.0 km/h 8.1 mph /  13.0 km/h 37 % 0 in /  0.0 mm
16:23 80.1 °F /  26.7 °C 51.4 °F /  10.8 °C 30 in /  1016.8 hPa ESE 9.2 mph /  14.8 km/h 9.2 mph /  14.8 km/h 37 % 0 in /  0.0 mm
16:28 80.4 °F /  26.9 °C 51.1 °F /  10.6 °C 30 in /  1016.8 hPa East 8.1 mph /  13.0 km/h 8.1 mph /  13.0 km/h 36 % 0 in /  0.0 mm
16:33 80.6 °F /  27.0 °C 50.4 °F /  10.2 °C 30 in /  1016.8 hPa East 9.2 mph /  14.8 km/h 9.2 mph /  14.8 km/h 35 % 0 in /  0.0 mm
16:38 80.6 °F /  27.0 °C 49.6 °F /  9.8 °C 30 in /  1016.8 hPa East 9.2 mph /  14.8 km/h 9.2 mph /  14.8 km/h 34 % 0 in /  0.0 mm
16:43 80.2 °F /  26.8 °C 50.2 °F /  10.1 °C 30 in /  1016.8 hPa ENE 10.4 mph /  16.7 km/h 10.4 mph /  16.7 km/h 35 % 0 in /  0.0 mm
16:48 80.2 °F /  26.8 °C 49.3 °F /  9.6 °C 30 in /  1016.8 hPa ESE 10.4 mph /  16.7 km/h 10.4 mph /  16.7 km/h 34 % 0 in /  0.0 mm
16:53 79.9 °F /  26.6 °C 48.9 °F /  9.4 °C 30.1 in /  1017.8 hPa ESE 8.1 mph /  13.0 km/h 8.1 mph /  13.0 km/h 34 % 0 in /  0.0 mm
16:58 79.9 °F /  26.6 °C 49.8 °F /  9.9 °C 30.1 in /  1017.8 hPa ENE 8.1 mph /  13.0 km/h 8.1 mph /  13.0 km/h 35 % 0 in /  0.0 mm
17:03 79.9 °F /  26.6 °C 48.9 °F /  9.4 °C 30.1 in /  1017.8 hPa South 8.7 mph /  14.0 km/h 8.7 mph /  14.0 km/h 34 % 0 in /  0.0 mm
17:08 79.5 °F /  26.4 °C 47.8 °F /  8.8 °C 30.1 in /  1017.8 hPa ENE 9.2 mph /  14.8 km/h 9.2 mph /  14.8 km/h 33 % 0 in /  0.0 mm
17:13 79.3 °F /  26.3 °C 48.6 °F /  9.2 °C 30.1 in /  1017.8 hPa ESE 10.4 mph /  16.7 km/h 10.4 mph /  16.7 km/h 34 % 0 in /  0.0 mm
17:18 79.2 °F /  26.2 °C 48.4 °F /  9.1 °C 30.1 in /  1017.8 hPa East 12.7 mph /  20.4 km/h 12.7 mph /  20.4 km/h 34 % 0 in /  0.0 mm
17:23 79.2 °F /  26.2 °C 48.4 °F /  9.1 °C 30.1 in /  1017.8 hPa ENE 10.2 mph /  16.4 km/h 10.2 mph /  16.4 km/h 34 % 0 in /  0.0 mm
17:28 79 °F /  26.1 °C 48.2 °F /  9.0 °C 30.1 in /  1017.8 hPa East 11.5 mph /  18.5 km/h 11.5 mph /  18.5 km/h 34 % 0 in /  0.0 mm
17:33 79.2 °F /  26.2 °C 47.7 °F /  8.7 °C 30.1 in /  1017.8 hPa ESE 10.4 mph /  16.7 km/h 10.4 mph /  16.7 km/h 33 % 0 in /  0.0 mm
17:38 79.3 °F /  26.3 °C 47.7 °F /  8.7 °C 30.1 in /  1017.8 hPa ESE 10.4 mph /  16.7 km/h 10.4 mph /  16.7 km/h 33 % 0 in /  0.0 mm
17:43 79.2 °F /  26.2 °C 47.7 °F /  8.7 °C 30.1 in /  1017.8 hPa ESE 8.1 mph /  13.0 km/h 8.1 mph /  13.0 km/h 33 % 0 in /  0.0 mm
17:48 79.2 °F /  26.2 °C 46.8 °F /  8.2 °C 30.1 in /  1017.8 hPa ESE 11.5 mph /  18.5 km/h 11.5 mph /  18.5 km/h 32 % 0 in /  0.0 mm
17:53 79 °F /  26.1 °C 47.5 °F /  8.6 °C 30.1 in /  1017.8 hPa ESE 10.4 mph /  16.7 km/h 10.4 mph /  16.7 km/h 33 % 0 in /  0.0 mm
17:58 78.8 °F /  26.0 °C 47.3 °F /  8.5 °C 30.1 in /  1017.8 hPa ESE 11.5 mph /  18.5 km/h 11.5 mph /  18.5 km/h 33 % 0 in /  0.0 mm
18:03 78.4 °F /  25.8 °C 46 °F /  7.8 °C 30.1 in /  1017.8 hPa East 10.4 mph /  16.7 km/h 10.4 mph /  16.7 km/h 32 % 0 in /  0.0 mm
18:08 78.3 °F /  25.7 °C 46.8 °F /  8.2 °C 30.1 in /  1017.8 hPa SE 10.4 mph /  16.7 km/h 10.4 mph /  16.7 km/h 33 % 0 in /  0.0 mm
18:13 78.3 °F /  25.7 °C 47.7 °F /  8.7 °C 30.1 in /  1017.8 hPa ESE 10.4 mph /  16.7 km/h 10.4 mph /  16.7 km/h 34 % 0 in /  0.0 mm
18:18 77.9 °F /  25.5 °C 47.3 °F /  8.5 °C 30.1 in /  1017.8 hPa ESE 10.4 mph /  16.7 km/h 10.4 mph /  16.7 km/h 34 % 0 in /  0.0 mm
18:23 77.9 °F /  25.5 °C 48 °F /  8.9 °C 30 in /  1016.8 hPa ESE 6.9 mph /  11.1 km/h 6.9 mph /  11.1 km/h 35 % 0 in /  0.0 mm
18:28 77.5 °F /  25.3 °C 47.7 °F /  8.7 °C 30 in /  1016.8 hPa ESE 10.4 mph /  16.7 km/h 10.4 mph /  16.7 km/h 35 % 0 in /  0.0 mm
18:33 77.5 °F /  25.3 °C 47.7 °F /  8.7 °C 30 in /  1016.8 hPa ESE 8.1 mph /  13.0 km/h 8.1 mph /  13.0 km/h 35 % 0 in /  0.0 mm
18:38 77.4 °F /  25.2 °C 47.7 °F /  8.7 °C 30 in /  1016.8 hPa ESE 12.7 mph /  20.4 km/h 12.7 mph /  20.4 km/h 35 % 0 in /  0.0 mm
18:43 77.4 °F /  25.2 °C 48.4 °F /  9.1 °C 30 in /  1016.8 hPa East 8.1 mph /  13.0 km/h 8.1 mph /  13.0 km/h 36 % 0 in /  0.0 mm
18:48 77 °F /  25.0 °C 48 °F /  8.9 °C 30 in /  1016.8 hPa East 11.5 mph /  18.5 km/h 11.5 mph /  18.5 km/h 36 % 0 in /  0.0 mm
18:53 76.6 °F /  24.8 °C 48.4 °F /  9.1 °C 30 in /  1016.8 hPa SE 10.4 mph /  16.7 km/h 10.4 mph /  16.7 km/h 37 % 0 in /  0.0 mm
18:58 76.5 °F /  24.7 °C 48.2 °F /  9.0 °C 30 in /  1016.8 hPa ESE 11.5 mph /  18.5 km/h 11.5 mph /  18.5 km/h 37 % 0 in /  0.0 mm
19:03 76.3 °F /  24.6 °C 48 °F /  8.9 °C 30 in /  1016.8 hPa ESE 8.1 mph /  13.0 km/h 8.1 mph /  13.0 km/h 37 % 0 in /  0.0 mm
19:08 76.3 °F /  24.6 °C 48 °F /  8.9 °C 30 in /  1015.8 hPa ENE 8.1 mph /  13.0 km/h 8.1 mph /  13.0 km/h 37 % 0 in /  0.0 mm
19:13 76.1 °F /  24.5 °C 47.8 °F /  8.8 °C 30 in /  1015.8 hPa ESE 9.2 mph /  14.8 km/h 9.2 mph /  14.8 km/h 37 % 0 in /  0.0 mm
19:18 76.1 °F /  24.5 °C 48.6 °F /  9.2 °C 30 in /  1015.8 hPa ESE 8.1 mph /  13.0 km/h 8.1 mph /  13.0 km/h 38 % 0 in /  0.0 mm
19:20 66.6 °F /  19.2 °C 50.7 °F /  10.4 °C 30.1 in /  1017.8 hPa Calm     57 % 0 in /  0.0 mm
19:23 76.1 °F /  24.5 °C 49.3 °F /  9.6 °C 30 in /  1016.8 hPa SE 5.8 mph /  9.3 km/h 5.8 mph /  9.3 km/h 39 % 0 in /  0.0 mm
19:28 75.9 °F /  24.4 °C 48.6 °F /  9.2 °C 30 in /  1016.8 hPa ESE 6.2 mph /  10.0 km/h 6.2 mph /  10.0 km/h 38 % 0 in /  0.0 mm
19:30 66.2 °F /  19.0 °C 51.1 °F /  10.6 °C 30.1 in /  1017.8 hPa Calm     58 % 0 in /  0.0 mm
19:33 75.7 °F /  24.3 °C 48.9 °F /  9.4 °C 30 in /  1016.8 hPa East 9.2 mph /  14.8 km/h 9.2 mph /  14.8 km/h 39 % 0 in /  0.0 mm
19:38 75.6 °F /  24.2 °C 48.9 °F /  9.4 °C 30 in /  1015.8 hPa South 5.8 mph /  9.3 km/h 5.8 mph /  9.3 km/h 39 % 0 in /  0.0 mm
19:40 66 °F /  18.9 °C 51.3 °F /  10.7 °C 30.1 in /  1017.8 hPa NE 1 mph /  1.6 km/h 1 mph /  1.6 km/h 59 % 0 in /  0.0 mm
19:43 75.7 °F /  24.3 °C 48.9 °F /  9.4 °C 30 in /  1015.8 hPa SE 5.8 mph /  9.3 km/h 5.8 mph /  9.3 km/h 39 % 0 in /  0.0 mm
19:48 75.6 °F /  24.2 °C 49.5 °F /  9.7 °C 30 in /  1015.8 hPa SE 7.8 mph /  12.6 km/h 7.8 mph /  12.6 km/h 40 % 0 in /  0.0 mm
19:50 65.7 °F /  18.7 °C 51.4 °F /  10.8 °C 30.1 in /  1017.8 hPa Calm   1 mph /  1.6 km/h 60 % 0 in /  0.0 mm
19:53 75 °F /  23.9 °C 49.1 °F /  9.5 °C 30 in /  1016.8 hPa ESE 6.9 mph /  11.1 km/h 6.9 mph /  11.1 km/h 40 % 0 in /  0.0 mm
19:58 75 °F /  23.9 °C 49.1 °F /  9.5 °C 30 in /  1016.8 hPa South 4.6 mph /  7.4 km/h 4.6 mph /  7.4 km/h 40 % 0 in /  0.0 mm
20:00 65.1 °F /  18.4 °C 50.9 °F /  10.5 °C 30.1 in /  1017.8 hPa ENE 1 mph /  1.6 km/h 1 mph /  1.6 km/h 60 % 0 in /  0.0 mm
20:03 74.5 °F /  23.6 °C 48.6 °F /  9.2 °C 30 in /  1016.8 hPa ESE 5.8 mph /  9.3 km/h 5.8 mph /  9.3 km/h 40 % 0 in /  0.0 mm
20:08 74.3 °F /  23.5 °C 48.4 °F /  9.1 °C 30 in /  1016.8 hPa ESE 6.9 mph /  11.1 km/h 6.9 mph /  11.1 km/h 40 % 0 in /  0.0 mm
20:10 64.8 °F /  18.2 °C 51.1 °F /  10.6 °C 30.1 in /  1017.8 hPa ENE 1 mph /  1.6 km/h 2 mph /  3.2 km/h 61 % 0 in /  0.0 mm
20:13 73.9 °F /  23.3 °C 48.7 °F /  9.3 °C 30 in /  1016.8 hPa ESE 7.6 mph /  12.2 km/h 7.6 mph /  12.2 km/h 41 % 0 in /  0.0 mm
20:18 73.8 °F /  23.2 °C 48.6 °F /  9.2 °C 30 in /  1016.8 hPa ENE 6.9 mph /  11.1 km/h 6.9 mph /  11.1 km/h 41 % 0 in /  0.0 mm
20:20 64.4 °F /  18.0 °C 50.7 °F /  10.4 °C 30.1 in /  1017.8 hPa Calm   2 mph /  3.2 km/h 61 % 0 in /  0.0 mm
20:23 73.6 °F /  23.1 °C 48.4 °F /  9.1 °C 30 in /  1016.8 hPa SSE 8.1 mph /  13.0 km/h 8.1 mph /  13.0 km/h 41 % 0 in /  0.0 mm
20:28 73.4 °F /  23.0 °C 48.9 °F /  9.4 °C 30 in /  1016.8 hPa East 5.8 mph /  9.3 km/h 5.8 mph /  9.3 km/h 42 % 0 in /  0.0 mm
20:30 64.2 °F /  17.9 °C 50.5 °F /  10.3 °C 30.1 in /  1017.8 hPa Calm   1 mph /  1.6 km/h 61 % 0 in /  0.0 mm
20:33 73 °F /  22.8 °C 49.3 °F /  9.6 °C 30 in /  1016.8 hPa East 6.2 mph /  10.0 km/h 6.2 mph /  10.0 km/h 43 % 0 in /  0.0 mm
20:38 72.9 °F /  22.7 °C 49.6 °F /  9.8 °C 30 in /  1016.8 hPa East 4.6 mph /  7.4 km/h 4.6 mph /  7.4 km/h 44 % 0 in /  0.0 mm
20:40 64 °F /  17.8 °C 50.7 °F /  10.4 °C 30.1 in /  1017.8 hPa Calm   1 mph /  1.6 km/h 62 % 0 in /  0.0 mm
20:43 72.5 °F /  22.5 °C 49.3 °F /  9.6 °C 30 in /  1016.8 hPa ESE 4 mph /  6.4 km/h 4 mph /  6.4 km/h 44 % 0 in /  0.0 mm
20:48 72.3 °F /  22.4 °C 49.3 °F /  9.6 °C 30 in /  1016.8 hPa ESE 3.5 mph /  5.6 km/h 3.5 mph /  5.6 km/h 44 % 0 in /  0.0 mm
20:50 63.7 °F /  17.6 °C 50.4 °F /  10.2 °C 30.1 in /  1017.8 hPa NE 1 mph /  1.6 km/h 2 mph /  3.2 km/h 62 % 0 in /  0.0 mm
20:53 72.1 °F /  22.3 °C 49.6 °F /  9.8 °C 30 in /  1016.8 hPa ESE 4.6 mph /  7.4 km/h 4.6 mph /  7.4 km/h 45 % 0 in /  0.0 mm
20:58 72 °F /  22.2 °C 49.5 °F /  9.7 °C 30 in /  1016.8 hPa ESE 4.6 mph /  7.4 km/h 4.6 mph /  7.4 km/h 45 % 0 in /  0.0 mm
21:00 63.5 °F /  17.5 °C 50.7 °F /  10.4 °C 30.1 in /  1017.8 hPa NE 1 mph /  1.6 km/h 2 mph /  3.2 km/h 63 % 0 in /  0.0 mm
21:03 71.8 °F /  22.1 °C 49.3 °F /  9.6 °C 30 in /  1016.8 hPa ESE 6.9 mph /  11.1 km/h 6.9 mph /  11.1 km/h 45 % 0 in /  0.0 mm
21:08 71.6 °F /  22.0 °C 49.6 °F /  9.8 °C 30 in /  1016.8 hPa ESE 3.5 mph /  5.6 km/h 3.5 mph /  5.6 km/h 46 % 0 in /  0.0 mm
21:10 63.3 °F /  17.4 °C 50.5 °F /  10.3 °C 30 in /  1016.8 hPa Calm   1 mph /  1.6 km/h 63 % 0 in /  0.0 mm
21:13 71.6 °F /  22.0 °C 49.6 °F /  9.8 °C 30 in /  1016.8 hPa SE 4.6 mph /  7.4 km/h 4.6 mph /  7.4 km/h 46 % 0 in /  0.0 mm
21:18 71.4 °F /  21.9 °C 50.2 °F /  10.1 °C 30 in /  1016.8 hPa ESE 4.6 mph /  7.4 km/h 4.6 mph /  7.4 km/h 47 % 0 in /  0.0 mm
21:20 63.3 °F /  17.4 °C 50.5 °F /  10.3 °C 30 in /  1016.8 hPa NE 1 mph /  1.6 km/h 2 mph /  3.2 km/h 63 % 0 in /  0.0 mm
21:23 71.1 °F /  21.7 °C 49.8 °F /  9.9 °C 30 in /  1016.8 hPa SSE 3.5 mph /  5.6 km/h 3.5 mph /  5.6 km/h 47 % 0 in /  0.0 mm
21:28 71.1 °F /  21.7 °C 49.8 °F /  9.9 °C 30 in /  1016.8 hPa East 3.5 mph /  5.6 km/h 3.5 mph /  5.6 km/h 47 % 0 in /  0.0 mm
21:30 63 °F /  17.2 °C 50.2 °F /  10.1 °C 30 in /  1016.8 hPa NE 1 mph /  1.6 km/h 1 mph /  1.6 km/h 63 % 0 in /  0.0 mm
21:33 70.9 °F /  21.6 °C 49.6 °F /  9.8 °C 30 in /  1016.8 hPa SE 2.3 mph /  3.7 km/h 2.3 mph /  3.7 km/h 47 % 0 in /  0.0 mm
21:38 70.7 °F /  21.5 °C 50 °F /  10.0 °C 30 in /  1016.8 hPa East 2.3 mph /  3.7 km/h 2.3 mph /  3.7 km/h 48 % 0 in /  0.0 mm
21:40 63 °F /  17.2 °C 49.6 °F /  9.8 °C 30 in /  1016.8 hPa NE 1 mph /  1.6 km/h 2 mph /  3.2 km/h 62 % 0 in /  0.0 mm
21:43 70.3 °F /  21.3 °C 49.6 °F /  9.8 °C 30 in /  1016.8 hPa ENE 2.4 mph /  3.9 km/h 2.4 mph /  3.9 km/h 48 % 0 in /  0.0 mm
21:48 70.2 °F /  21.2 °C 49.5 °F /  9.7 °C 30 in /  1016.8 hPa ESE 2.3 mph /  3.7 km/h 2.3 mph /  3.7 km/h 48 % 0 in /  0.0 mm
21:50 62.8 °F /  17.1 °C 50 °F /  10.0 °C 30 in /  1015.8 hPa Calm   1 mph /  1.6 km/h 63 % 0 in /  0.0 mm
21:53 70.2 °F /  21.2 °C 49.5 °F /  9.7 °C 30.1 in /  1017.8 hPa NE 2.3 mph /  3.7 km/h 2.3 mph /  3.7 km/h 48 % 0 in /  0.0 mm
21:58 70 °F /  21.1 °C 49.8 °F /  9.9 °C 30.1 in /  1017.8 hPa ENE 2.3 mph /  3.7 km/h   49 % 0 in /  0.0 mm
22:00 62.4 °F /  16.9 °C 50.2 °F /  10.1 °C 30 in /  1015.8 hPa Calm     64 % 0 in /  0.0 mm
22:03 69.8 °F /  21.0 °C 49.8 °F /  9.9 °C 30.1 in /  1017.8 hPa ENE 2.3 mph /  3.7 km/h 2.3 mph /  3.7 km/h 49 % 0 in /  0.0 mm
22:08 69.8 °F /  21.0 °C 49.8 °F /  9.9 °C 30.1 in /  1017.8 hPa NNE 2.9 mph /  4.7 km/h 2.9 mph /  4.7 km/h 49 % 0 in /  0.0 mm
22:10 62.2 °F /  16.8 °C 50.4 °F /  10.2 °C 30 in /  1015.8 hPa Calm     65 % 0 in /  0.0 mm
22:13 69.6 °F /  20.9 °C 50.2 °F /  10.1 °C 30.1 in /  1017.8 hPa ENE 2.3 mph /  3.7 km/h 2.3 mph /  3.7 km/h 50 % 0 in /  0.0 mm
22:18 69.4 °F /  20.8 °C 50 °F /  10.0 °C 30.1 in /  1017.8 hPa NNE 2.3 mph /  3.7 km/h 2.3 mph /  3.7 km/h 50 % 0 in /  0.0 mm
22:20 61.7 °F /  16.5 °C 49.8 °F /  9.9 °C 30 in /  1015.8 hPa NE 1 mph /  1.6 km/h 1 mph /  1.6 km/h 65 % 0 in /  0.0 mm
22:23 69.4 °F /  20.8 °C 50.5 °F /  10.3 °C 30.1 in /  1017.8 hPa NE 3.5 mph /  5.6 km/h 3.5 mph /  5.6 km/h 51 % 0 in /  0.0 mm
22:28 69.4 °F /  20.8 °C 50.5 °F /  10.3 °C 30.1 in /  1017.8 hPa NE 2.3 mph /  3.7 km/h 2.3 mph /  3.7 km/h 51 % 0 in /  0.0 mm
22:30 61.2 °F /  16.2 °C 49.6 °F /  9.8 °C 30 in /  1015.8 hPa Calm   1 mph /  1.6 km/h 66 % 0 in /  0.0 mm
22:33 69.3 °F /  20.7 °C 50.4 °F /  10.2 °C 30.1 in /  1017.8 hPa NE 2.4 mph /  3.9 km/h 2.4 mph /  3.9 km/h 51 % 0 in /  0.0 mm
22:38 69.3 °F /  20.7 °C 50.4 °F /  10.2 °C 30.1 in /  1017.8 hPa NNE 2.3 mph /  3.7 km/h 2.3 mph /  3.7 km/h 51 % 0 in /  0.0 mm
22:40 60.8 °F /  16.0 °C 49.5 °F /  9.7 °C 30 in /  1015.8 hPa Calm     66 % 0 in /  0.0 mm
22:43 68.9 °F /  20.5 °C 50.5 °F /  10.3 °C 30.1 in /  1017.8 hPa NNE 2.3 mph /  3.7 km/h 2.3 mph /  3.7 km/h 52 % 0 in /  0.0 mm
22:48 68.9 °F /  20.5 °C 50.5 °F /  10.3 °C 30.1 in /  1017.8 hPa NE 2.3 mph /  3.7 km/h 2.3 mph /  3.7 km/h 52 % 0 in /  0.0 mm
22:50 60.4 °F /  15.8 °C 48.6 °F /  9.2 °C 30 in /  1015.8 hPa Calm     65 % 0 in /  0.0 mm
22:53 68.7 °F /  20.4 °C 50.9 °F /  10.5 °C 30.1 in /  1017.8 hPa NE 1.2 mph /  1.9 km/h   53 % 0 in /  0.0 mm
22:58 68.5 °F /  20.3 °C 50.7 °F /  10.4 °C 30.1 in /  1017.8 hPa NNE 1.4 mph /  2.3 km/h 1.4 mph /  2.3 km/h 53 % 0 in /  0.0 mm
23:00 60.4 °F /  15.8 °C 48.6 °F /  9.2 °C 30 in /  1015.8 hPa SW 2 mph /  3.2 km/h 2 mph /  3.2 km/h 65 % 0 in /  0.0 mm
23:03 68.4 °F /  20.2 °C 50.5 °F /  10.3 °C 30.1 in /  1017.8 hPa Calm     53 % 0 in /  0.0 mm
23:08 68.2 °F /  20.1 °C 50.9 °F /  10.5 °C 30.1 in /  1017.8 hPa NNE 1.2 mph /  1.9 km/h 1.2 mph /  1.9 km/h 54 % 0 in /  0.0 mm
23:10 60.1 °F /  15.6 °C 48.4 °F /  9.1 °C 30 in /  1015.8 hPa SW 1 mph /  1.6 km/h 2 mph /  3.2 km/h 65 % 0 in /  0.0 mm
23:13 68.2 °F /  20.1 °C 50.9 °F /  10.5 °C 30.1 in /  1017.8 hPa NNE 1.4 mph /  2.3 km/h 1.4 mph /  2.3 km/h 54 % 0 in /  0.0 mm
23:18 68.2 °F /  20.1 °C 50.9 °F /  10.5 °C 30.1 in /  1017.8 hPa NE 2.3 mph /  3.7 km/h 2.3 mph /  3.7 km/h 54 % 0 in /  0.0 mm
23:20 60.1 °F /  15.6 °C 48.4 °F /  9.1 °C 30 in /  1015.8 hPa WSW 1 mph /  1.6 km/h 2 mph /  3.2 km/h 65 % 0 in /  0.0 mm
23:23 68 °F /  20.0 °C 51.3 °F /  10.7 °C 30.1 in /  1017.8 hPa Calm     55 % 0 in /  0.0 mm
23:28 67.8 °F /  19.9 °C 51.1 °F /  10.6 °C 30.1 in /  1017.8 hPa Calm     55 % 0 in /  0.0 mm
23:30 60.1 °F /  15.6 °C 48.4 °F /  9.1 °C 30 in /  1015.8 hPa SW 1 mph /  1.6 km/h 1 mph /  1.6 km/h 65 % 0 in /  0.0 mm
23:33 67.6 °F /  19.8 °C 50.9 °F /  10.5 °C 30.1 in /  1017.8 hPa Calm     55 % 0 in /  0.0 mm
23:38 67.5 °F /  19.7 °C 50.7 °F /  10.4 °C 30 in /  1016.8 hPa Calm     55 % 0 in /  0.0 mm
23:40 60.3 °F /  15.7 °C 48.9 °F /  9.4 °C 30 in /  1015.8 hPa Calm   1 mph /  1.6 km/h 66 % 0 in /  0.0 mm
23:43 67.3 °F /  19.6 °C 51.1 °F /  10.6 °C 30 in /  1016.8 hPa Calm     56 % 0 in /  0.0 mm
23:48 67.3 °F /  19.6 °C 51.1 °F /  10.6 °C 30 in /  1016.8 hPa NE 1.2 mph /  1.9 km/h   56 % 0 in /  0.0 mm
23:50 60.1 °F /  15.6 °C 48.7 °F /  9.3 °C 30 in /  1015.8 hPa Calm     66 % 0 in /  0.0 mm
23:53 67.3 °F /  19.6 °C 51.1 °F /  10.6 °C 30.1 in /  1017.8 hPa Calm     56 % 0 in /  0.0 mm
23:58 67.1 °F /  19.5 °C 51.4 °F /  10.8 °C 30.1 in /  1017.8 hPa Calm     57 % 0 in /  0.0 mm
Meteo Sesrovires
Elogis d' Weather Underground - 3.75 mb

Guio original per  Jim McMurry - jmcmurry@mwt.net Adaptat per a la plantilla per  Wim van der Kuil - Leuven-Template.eu

Trobareu la nostra informacio del temps tambe a:

Weather Underground

AWEKAS